sensor_id;sensor_type;location;lat;lon;timestamp;pressure;altitude;pressure_sealevel;temperature;humidity
45894;BME280;31603;51.148;16.932;2023-02-20T00:01:32;100815.53;;;1.71;100.00
45894;BME280;31603;51.148;16.932;2023-02-20T00:03:59;100809.88;;;1.93;100.00
45894;BME280;31603;51.148;16.932;2023-02-20T00:06:25;100805.44;;;1.92;100.00
45894;BME280;31603;51.148;16.932;2023-02-20T00:08:53;100798.31;;;2.21;100.00
45894;BME280;31603;51.148;16.932;2023-02-20T00:11:19;100800.03;;;1.92;100.00
45894;BME280;31603;51.148;16.932;2023-02-20T00:13:46;100805.59;;;2.10;100.00
45894;BME280;31603;51.148;16.932;2023-02-20T00:16:13;100802.56;;;1.75;100.00
45894;BME280;31603;51.148;16.932;2023-02-20T00:18:39;100795.03;;;1.98;100.00
45894;BME280;31603;51.148;16.932;2023-02-20T00:21:06;100790.50;;;1.58;100.00
45894;BME280;31603;51.148;16.932;2023-02-20T00:23:33;100787.25;;;1.64;100.00
45894;BME280;31603;51.148;16.932;2023-02-20T00:26:01;100788.97;;;1.65;100.00
45894;BME280;31603;51.148;16.932;2023-02-20T00:28:27;100785.00;;;1.79;100.00
45894;BME280;31603;51.148;16.932;2023-02-20T00:30:54;100779.13;;;1.74;100.00
45894;BME280;31603;51.148;16.932;2023-02-20T00:33:20;100767.03;;;1.97;100.00
45894;BME280;31603;51.148;16.932;2023-02-20T00:35:47;100768.03;;;2.06;100.00
45894;BME280;31603;51.148;16.932;2023-02-20T00:38:13;100763.19;;;2.19;100.00
45894;BME280;31603;51.148;16.932;2023-02-20T00:40:40;100757.50;;;2.22;100.00
45894;BME280;31603;51.148;16.932;2023-02-20T00:43:08;100756.34;;;2.15;100.00
45894;BME280;31603;51.148;16.932;2023-02-20T00:45:34;100771.47;;;2.08;100.00
45894;BME280;31603;51.148;16.932;2023-02-20T00:48:01;100759.19;;;2.23;100.00
45894;BME280;31603;51.148;16.932;2023-02-20T00:50:27;100760.47;;;2.38;100.00
45894;BME280;31603;51.148;16.932;2023-02-20T00:52:53;100761.19;;;2.40;100.00
45894;BME280;31603;51.148;16.932;2023-02-20T00:55:20;100764.63;;;2.33;100.00
45894;BME280;31603;51.148;16.932;2023-02-20T00:57:46;100758.31;;;2.32;100.00
45894;BME280;31603;51.148;16.932;2023-02-20T01:00:20;100758.31;;;2.03;100.00
45894;BME280;31603;51.148;16.932;2023-02-20T01:02:47;100754.03;;;2.20;100.00
45894;BME280;31603;51.148;16.932;2023-02-20T01:05:14;100763.03;;;2.21;100.00
45894;BME280;31603;51.148;16.932;2023-02-20T01:07:40;100752.91;;;2.23;100.00
45894;BME280;31603;51.148;16.932;2023-02-20T01:10:07;100759.16;;;2.42;100.00
45894;BME280;31603;51.148;16.932;2023-02-20T01:12:34;100764.47;;;2.34;100.00
45894;BME280;31603;51.148;16.932;2023-02-20T01:15:00;100759.78;;;2.36;100.00
45894;BME280;31603;51.148;16.932;2023-02-20T01:17:28;100755.44;;;2.53;100.00
45894;BME280;31603;51.148;16.932;2023-02-20T01:19:55;100749.16;;;2.53;100.00
45894;BME280;31603;51.148;16.932;2023-02-20T01:22:21;100742.47;;;2.47;100.00
45894;BME280;31603;51.148;16.932;2023-02-20T01:24:48;100747.16;;;2.55;100.00
45894;BME280;31603;51.148;16.932;2023-02-20T01:27:15;100743.41;;;2.75;100.00
45894;BME280;31603;51.148;16.932;2023-02-20T01:29:41;100740.84;;;2.64;100.00
45894;BME280;31603;51.148;16.932;2023-02-20T01:32:10;100729.16;;;2.54;100.00
45894;BME280;31603;51.148;16.932;2023-02-20T01:34:38;100732.91;;;2.33;100.00
45894;BME280;31603;51.148;16.932;2023-02-20T01:37:05;100733.19;;;2.30;100.00
45894;BME280;31603;51.148;16.932;2023-02-20T01:39:31;100719.50;;;2.22;100.00
45894;BME280;31603;51.148;16.932;2023-02-20T01:41:59;100725.63;;;2.44;100.00
45894;BME280;31603;51.148;16.932;2023-02-20T01:44:28;100703.16;;;2.51;100.00
45894;BME280;31603;51.148;16.932;2023-02-20T01:46:55;100697.88;;;2.50;100.00
45894;BME280;31603;51.148;16.932;2023-02-20T01:49:26;100706.47;;;2.35;100.00
45894;BME280;31603;51.148;16.932;2023-02-20T01:52:00;100705.44;;;2.56;100.00
45894;BME280;31603;51.148;16.932;2023-02-20T01:54:28;100700.78;;;2.76;100.00
45894;BME280;31603;51.148;16.932;2023-02-20T01:56:58;100709.16;;;2.55;100.00
45894;BME280;31603;51.148;16.932;2023-02-20T01:59:29;100699.44;;;2.62;100.00
45894;BME280;31603;51.148;16.932;2023-02-20T02:01:57;100699.38;;;2.72;100.00
45894;BME280;31603;51.148;16.932;2023-02-20T02:04:24;100694.28;;;2.59;100.00
45894;BME280;31603;51.148;16.932;2023-02-20T02:06:52;100693.69;;;2.65;100.00
45894;BME280;31603;51.148;16.932;2023-02-20T02:09:27;100693.69;;;2.65;100.00
45894;BME280;31603;51.148;16.932;2023-02-20T02:11:59;100690.25;;;2.73;100.00
45894;BME280;31603;51.148;16.932;2023-02-20T02:14:25;100684.94;;;2.81;100.00
45894;BME280;31603;51.148;16.932;2023-02-20T02:17:02;100667.91;;;2.79;100.00
45894;BME280;31603;51.148;16.932;2023-02-20T02:19:53;100676.50;;;2.74;100.00
45894;BME280;31603;51.148;16.932;2023-02-20T02:22:42;100669.41;;;2.54;100.00
45894;BME280;31603;51.148;16.932;2023-02-20T02:25:28;100663.50;;;2.78;100.00
45894;BME280;31603;51.148;16.932;2023-02-20T02:31:34;100654.31;;;2.51;100.00
45894;BME280;31603;51.148;16.932;2023-02-20T02:34:42;100660.56;;;2.52;100.00
45894;BME280;31603;51.148;16.932;2023-02-20T02:37:19;100666.00;;;2.52;100.00
45894;BME280;31603;51.148;16.932;2023-02-20T02:39:49;100654.88;;;2.55;100.00
45894;BME280;31603;51.148;16.932;2023-02-20T02:42:28;100640.56;;;2.53;100.00
45894;BME280;31603;51.148;16.932;2023-02-20T02:45:00;100629.78;;;2.33;100.00
45894;BME280;31603;51.148;16.932;2023-02-20T02:47:34;100630.47;;;2.35;100.00
45894;BME280;31603;51.148;16.932;2023-02-20T02:50:05;100645.03;;;2.34;100.00
45894;BME280;31603;51.148;16.932;2023-02-20T02:52:35;100649.44;;;2.45;100.00
45894;BME280;31603;51.148;16.932;2023-02-20T02:55:14;100646.84;;;2.53;100.00
45894;BME280;31603;51.148;16.932;2023-02-20T02:57:42;100637.31;;;2.39;100.00
45894;BME280;31603;51.148;16.932;2023-02-20T03:00:10;100636.03;;;2.44;100.00
45894;BME280;31603;51.148;16.932;2023-02-20T03:02:43;100629.72;;;2.43;100.00
45894;BME280;31603;51.148;16.932;2023-02-20T03:05:14;100627.72;;;2.55;100.00
45894;BME280;31603;51.148;16.932;2023-02-20T03:07:45;100622.69;;;2.50;100.00
45894;BME280;31603;51.148;16.932;2023-02-20T03:10:17;100614.81;;;2.57;100.00
45894;BME280;31603;51.148;16.932;2023-02-20T03:12:47;100609.13;;;2.50;100.00
45894;BME280;31603;51.148;16.932;2023-02-20T03:15:21;100615.91;;;2.36;100.00
45894;BME280;31603;51.148;16.932;2023-02-20T03:18:08;100618.56;;;2.46;100.00
45894;BME280;31603;51.148;16.932;2023-02-20T03:20:38;100614.00;;;2.47;100.00
45894;BME280;31603;51.148;16.932;2023-02-20T03:23:10;100606.75;;;2.75;100.00
45894;BME280;31603;51.148;16.932;2023-02-20T03:25:43;100605.59;;;2.77;100.00
45894;BME280;31603;51.148;16.932;2023-02-20T03:28:15;100615.81;;;2.65;100.00
45894;BME280;31603;51.148;16.932;2023-02-20T03:30:47;100627.88;;;2.81;100.00
45894;BME280;31603;51.148;16.932;2023-02-20T03:33:18;100621.78;;;2.97;100.00
45894;BME280;31603;51.148;16.932;2023-02-20T03:36:06;100622.72;;;2.87;100.00
45894;BME280;31603;51.148;16.932;2023-02-20T03:38:56;100619.78;;;2.99;100.00
45894;BME280;31603;51.148;16.932;2023-02-20T03:41:42;100616.22;;;2.98;100.00
45894;BME280;31603;51.148;16.932;2023-02-20T03:44:29;100619.28;;;2.85;100.00
45894;BME280;31603;51.148;16.932;2023-02-20T03:46:58;100616.47;;;2.77;100.00
45894;BME280;31603;51.148;16.932;2023-02-20T03:49:29;100609.72;;;3.09;100.00
45894;BME280;31603;51.148;16.932;2023-02-20T03:51:57;100604.00;;;2.84;100.00
45894;BME280;31603;51.148;16.932;2023-02-20T03:54:26;100609.59;;;3.01;100.00
45894;BME280;31603;51.148;16.932;2023-02-20T03:56:55;100602.84;;;3.05;100.00
45894;BME280;31603;51.148;16.932;2023-02-20T03:59:25;100604.84;;;3.12;100.00
45894;BME280;31603;51.148;16.932;2023-02-20T04:01:56;100596.81;;;3.11;100.00
45894;BME280;31603;51.148;16.932;2023-02-20T04:04:32;100592.69;;;3.34;100.00
45894;BME280;31603;51.148;16.932;2023-02-20T04:07:01;100593.75;;;3.24;100.00
45894;BME280;31603;51.148;16.932;2023-02-20T04:09:32;100578.91;;;3.18;100.00
45894;BME280;31603;51.148;16.932;2023-02-20T04:12:07;100561.34;;;2.95;100.00
45894;BME280;31603;51.148;16.932;2023-02-20T04:14:37;100553.66;;;3.08;100.00
45894;BME280;31603;51.148;16.932;2023-02-20T04:17:09;100552.97;;;3.06;100.00
45894;BME280;31603;51.148;16.932;2023-02-20T04:19:38;100553.59;;;3.18;100.00
45894;BME280;31603;51.148;16.932;2023-02-20T04:22:08;100565.63;;;3.15;100.00
45894;BME280;31603;51.148;16.932;2023-02-20T04:24:41;100558.56;;;3.22;100.00
45894;BME280;31603;51.148;16.932;2023-02-20T04:27:10;100551.72;;;3.54;100.00
45894;BME280;31603;51.148;16.932;2023-02-20T04:29:37;100563.00;;;3.23;100.00
45894;BME280;31603;51.148;16.932;2023-02-20T04:32:03;100569.13;;;3.25;100.00
45894;BME280;31603;51.148;16.932;2023-02-20T04:34:30;100565.25;;;3.28;100.00
45894;BME280;31603;51.148;16.932;2023-02-20T04:37:04;100566.03;;;3.20;100.00
45894;BME280;31603;51.148;16.932;2023-02-20T04:39:32;100565.16;;;3.37;100.00
45894;BME280;31603;51.148;16.932;2023-02-20T04:41:59;100566.25;;;3.45;100.00
45894;BME280;31603;51.148;16.932;2023-02-20T04:44:26;100574.94;;;3.30;100.00
45894;BME280;31603;51.148;16.932;2023-02-20T04:47:00;100558.84;;;3.01;100.00
45894;BME280;31603;51.148;16.932;2023-02-20T04:49:27;100552.84;;;2.98;100.00
45894;BME280;31603;51.148;16.932;2023-02-20T04:51:53;100545.84;;;2.77;100.00
45894;BME280;31603;51.148;16.932;2023-02-20T04:54:20;100541.78;;;3.09;100.00
45894;BME280;31603;51.148;16.932;2023-02-20T04:56:46;100541.47;;;2.94;100.00
45894;BME280;31603;51.148;16.932;2023-02-20T04:59:14;100539.28;;;3.16;100.00
45894;BME280;31603;51.148;16.932;2023-02-20T05:01:40;100541.16;;;3.15;100.00
45894;BME280;31603;51.148;16.932;2023-02-20T05:04:07;100531.44;;;3.30;100.00
45894;BME280;31603;51.148;16.932;2023-02-20T05:06:39;100523.84;;;3.34;100.00
45894;BME280;31603;51.148;16.932;2023-02-20T05:09:06;100533.72;;;3.17;100.00
45894;BME280;31603;51.148;16.932;2023-02-20T05:11:35;100530.84;;;3.36;100.00
45894;BME280;31603;51.148;16.932;2023-02-20T05:14:01;100531.25;;;3.24;100.00
45894;BME280;31603;51.148;16.932;2023-02-20T05:16:29;100525.88;;;3.50;100.00
45894;BME280;31603;51.148;16.932;2023-02-20T05:18:55;100524.38;;;3.37;100.00
45894;BME280;31603;51.148;16.932;2023-02-20T05:21:22;100521.13;;;3.34;100.00
45894;BME280;31603;51.148;16.932;2023-02-20T05:24:07;100521.09;;;3.52;100.00
45894;BME280;31603;51.148;16.932;2023-02-20T05:26:33;100514.13;;;3.49;100.00
45894;BME280;31603;51.148;16.932;2023-02-20T05:29:00;100509.91;;;3.55;100.00
45894;BME280;31603;51.148;16.932;2023-02-20T05:31:26;100512.28;;;3.50;100.00
45894;BME280;31603;51.148;16.932;2023-02-20T05:33:54;100508.59;;;3.59;100.00
45894;BME280;31603;51.148;16.932;2023-02-20T05:36:20;100509.28;;;3.61;100.00
45894;BME280;31603;51.148;16.932;2023-02-20T05:38:47;100507.84;;;3.49;100.00
45894;BME280;31603;51.148;16.932;2023-02-20T05:41:13;100512.88;;;3.61;100.00
45894;BME280;31603;51.148;16.932;2023-02-20T05:43:40;100500.94;;;3.80;100.00
45894;BME280;31603;51.148;16.932;2023-02-20T05:46:06;100504.41;;;3.91;100.00
45894;BME280;31603;51.148;16.932;2023-02-20T05:48:33;100513.22;;;4.10;100.00
45894;BME280;31603;51.148;16.932;2023-02-20T05:51:00;100507.59;;;4.12;100.00
45894;BME280;31603;51.148;16.932;2023-02-20T05:53:27;100501.56;;;4.26;100.00
45894;BME280;31603;51.148;16.932;2023-02-20T05:55:54;100502.09;;;4.30;100.00
45894;BME280;31603;51.148;16.932;2023-02-20T05:58:22;100497.50;;;4.30;100.00
45894;BME280;31603;51.148;16.932;2023-02-20T06:00:48;100503.09;;;4.29;100.00
45894;BME280;31603;51.148;16.932;2023-02-20T06:03:15;100497.97;;;4.26;100.00
45894;BME280;31603;51.148;16.932;2023-02-20T06:05:42;100481.47;;;4.27;100.00
45894;BME280;31603;51.148;16.932;2023-02-20T06:08:10;100481.47;;;4.27;100.00
45894;BME280;31603;51.148;16.932;2023-02-20T06:10:36;100486.63;;;4.39;100.00
45894;BME280;31603;51.148;16.932;2023-02-20T06:13:03;100493.03;;;4.21;100.00
45894;BME280;31603;51.148;16.932;2023-02-20T06:15:29;100500.25;;;4.39;100.00
45894;BME280;31603;51.148;16.932;2023-02-20T06:17:56;100487.84;;;4.44;100.00
45894;BME280;31603;51.148;16.932;2023-02-20T06:20:22;100482.44;;;4.52;100.00
45894;BME280;31603;51.148;16.932;2023-02-20T06:22:48;100476.13;;;4.44;100.00
45894;BME280;31603;51.148;16.932;2023-02-20T06:25:16;100480.25;;;4.64;100.00
45894;BME280;31603;51.148;16.932;2023-02-20T06:27:43;100482.22;;;4.46;100.00
45894;BME280;31603;51.148;16.932;2023-02-20T06:30:10;100485.00;;;4.54;100.00
45894;BME280;31603;51.148;16.932;2023-02-20T06:32:37;100478.63;;;4.88;100.00
45894;BME280;31603;51.148;16.932;2023-02-20T06:35:04;100469.22;;;4.66;100.00
45894;BME280;31603;51.148;16.932;2023-02-20T06:37:30;100465.63;;;4.65;100.00
45894;BME280;31603;51.148;16.932;2023-02-20T06:39:57;100461.88;;;4.58;100.00
45894;BME280;31603;51.148;16.932;2023-02-20T06:42:25;100447.94;;;4.69;100.00
45894;BME280;31603;51.148;16.932;2023-02-20T06:44:51;100463.47;;;4.85;100.00
45894;BME280;31603;51.148;16.932;2023-02-20T06:47:18;100466.56;;;4.90;100.00
45894;BME280;31603;51.148;16.932;2023-02-20T06:49:44;100458.00;;;4.85;100.00
45894;BME280;31603;51.148;16.932;2023-02-20T06:52:11;100443.91;;;4.98;100.00
45894;BME280;31603;51.148;16.932;2023-02-20T06:54:39;100452.09;;;5.06;100.00
45894;BME280;31603;51.148;16.932;2023-02-20T06:57:05;100453.97;;;5.22;100.00
45894;BME280;31603;51.148;16.932;2023-02-20T06:59:33;100449.22;;;5.16;100.00
45894;BME280;31603;51.148;16.932;2023-02-20T07:02:04;100467.78;;;5.20;100.00
45894;BME280;31603;51.148;16.932;2023-02-20T07:04:30;100454.47;;;5.17;100.00
45894;BME280;31603;51.148;16.932;2023-02-20T07:06:57;100450.38;;;5.21;100.00
45894;BME280;31603;51.148;16.932;2023-02-20T07:09:23;100443.41;;;5.27;100.00
45894;BME280;31603;51.148;16.932;2023-02-20T07:11:51;100443.06;;;5.38;100.00
45894;BME280;31603;51.148;16.932;2023-02-20T07:14:17;100438.63;;;5.21;100.00
45894;BME280;31603;51.148;16.932;2023-02-20T07:16:46;100437.94;;;5.51;100.00
45894;BME280;31603;51.148;16.932;2023-02-20T07:19:12;100441.16;;;5.55;100.00
45894;BME280;31603;51.148;16.932;2023-02-20T07:21:39;100423.78;;;5.56;100.00
45894;BME280;31603;51.148;16.932;2023-02-20T07:24:06;100434.34;;;5.59;100.00
45894;BME280;31603;51.148;16.932;2023-02-20T07:26:33;100433.31;;;5.68;100.00
45894;BME280;31603;51.148;16.932;2023-02-20T07:29:01;100422.06;;;5.63;100.00
45894;BME280;31603;51.148;16.932;2023-02-20T07:31:28;100409.94;;;5.74;100.00
45894;BME280;31603;51.148;16.932;2023-02-20T07:33:56;100408.06;;;5.66;100.00
45894;BME280;31603;51.148;16.932;2023-02-20T07:36:23;100394.09;;;5.61;100.00
45894;BME280;31603;51.148;16.932;2023-02-20T07:38:53;100390.66;;;5.75;100.00
45894;BME280;31603;51.148;16.932;2023-02-20T07:41:20;100381.75;;;5.90;100.00
45894;BME280;31603;51.148;16.932;2023-02-20T07:43:47;100382.09;;;6.03;100.00
45894;BME280;31603;51.148;16.932;2023-02-20T07:46:13;100375.25;;;5.99;100.00
45894;BME280;31603;51.148;16.932;2023-02-20T07:48:40;100372.50;;;6.07;100.00
45894;BME280;31603;51.148;16.932;2023-02-20T07:51:08;100363.31;;;6.31;100.00
45894;BME280;31603;51.148;16.932;2023-02-20T07:53:35;100339.00;;;6.21;100.00
45894;BME280;31603;51.148;16.932;2023-02-20T07:56:03;100346.53;;;6.11;100.00
45894;BME280;31603;51.148;16.932;2023-02-20T07:58:30;100353.72;;;6.35;100.00
45894;BME280;31603;51.148;16.932;2023-02-20T08:00:56;100356.31;;;6.37;100.00
45894;BME280;31603;51.148;16.932;2023-02-20T08:03:22;100350.84;;;6.37;100.00
45894;BME280;31603;51.148;16.932;2023-02-20T08:05:49;100342.50;;;6.61;100.00
45894;BME280;31603;51.148;16.932;2023-02-20T08:08:17;100353.53;;;6.45;100.00
45894;BME280;31603;51.148;16.932;2023-02-20T08:10:43;100350.63;;;6.69;100.00
45894;BME280;31603;51.148;16.932;2023-02-20T08:13:10;100344.06;;;6.56;100.00
45894;BME280;31603;51.148;16.932;2023-02-20T08:15:36;100338.97;;;6.75;100.00
45894;BME280;31603;51.148;16.932;2023-02-20T08:18:02;100330.38;;;7.02;100.00
45894;BME280;31603;51.148;16.932;2023-02-20T08:20:29;100320.09;;;7.04;100.00
45894;BME280;31603;51.148;16.932;2023-02-20T08:22:55;100306.88;;;6.92;100.00
45894;BME280;31603;51.148;16.932;2023-02-20T08:25:26;100319.13;;;7.19;100.00
45894;BME280;31603;51.148;16.932;2023-02-20T08:27:52;100313.19;;;6.93;100.00
45894;BME280;31603;51.148;16.932;2023-02-20T08:30:21;100313.91;;;7.10;100.00
45894;BME280;31603;51.148;16.932;2023-02-20T08:32:49;100317.53;;;7.40;100.00
45894;BME280;31603;51.148;16.932;2023-02-20T08:35:15;100306.09;;;7.21;100.00
45894;BME280;31603;51.148;16.932;2023-02-20T08:37:42;100304.50;;;7.27;100.00
45894;BME280;31603;51.148;16.932;2023-02-20T08:40:17;100306.50;;;7.48;100.00
45894;BME280;31603;51.148;16.932;2023-02-20T08:42:48;100298.34;;;7.25;100.00
45894;BME280;31603;51.148;16.932;2023-02-20T08:45:15;100303.09;;;7.61;100.00
45894;BME280;31603;51.148;16.932;2023-02-20T08:47:41;100294.03;;;7.75;100.00
45894;BME280;31603;51.148;16.932;2023-02-20T08:50:08;100279.50;;;7.75;100.00
45894;BME280;31603;51.148;16.932;2023-02-20T08:52:34;100282.34;;;7.81;100.00
45894;BME280;31603;51.148;16.932;2023-02-20T08:55:01;100270.56;;;8.02;100.00
45894;BME280;31603;51.148;16.932;2023-02-20T08:57:27;100260.28;;;8.04;100.00
45894;BME280;31603;51.148;16.932;2023-02-20T08:59:55;100250.97;;;7.84;100.00
45894;BME280;31603;51.148;16.932;2023-02-20T09:02:23;100252.06;;;8.04;100.00
45894;BME280;31603;51.148;16.932;2023-02-20T09:04:52;100249.47;;;7.81;100.00
45894;BME280;31603;51.148;16.932;2023-02-20T09:07:19;100252.81;;;7.98;100.00
45894;BME280;31603;51.148;16.932;2023-02-20T09:09:45;100253.97;;;8.04;100.00
45894;BME280;31603;51.148;16.932;2023-02-20T09:12:12;100243.59;;;7.99;100.00
45894;BME280;31603;51.148;16.932;2023-02-20T09:14:38;100243.47;;;8.07;100.00
45894;BME280;31603;51.148;16.932;2023-02-20T09:17:06;100246.41;;;8.27;100.00
45894;BME280;31603;51.148;16.932;2023-02-20T09:19:33;100229.91;;;8.20;100.00
45894;BME280;31603;51.148;16.932;2023-02-20T09:21:59;100237.00;;;8.51;100.00
45894;BME280;31603;51.148;16.932;2023-02-20T09:24:26;100247.66;;;8.25;100.00
45894;BME280;31603;51.148;16.932;2023-02-20T09:26:56;100227.44;;;8.26;100.00
45894;BME280;31603;51.148;16.932;2023-02-20T09:29:22;100215.44;;;8.27;100.00
45894;BME280;31603;51.148;16.932;2023-02-20T09:31:49;100212.47;;;8.43;100.00
45894;BME280;31603;51.148;16.932;2023-02-20T09:34:16;100199.00;;;8.48;100.00
45894;BME280;31603;51.148;16.932;2023-02-20T09:36:43;100202.47;;;8.57;100.00
45894;BME280;31603;51.148;16.932;2023-02-20T09:39:09;100193.94;;;8.45;100.00
45894;BME280;31603;51.148;16.932;2023-02-20T09:41:44;100193.28;;;8.71;100.00
45894;BME280;31603;51.148;16.932;2023-02-20T09:44:21;100190.72;;;8.91;100.00
45894;BME280;31603;51.148;16.932;2023-02-20T09:46:51;100181.88;;;8.67;100.00
45894;BME280;31603;51.148;16.932;2023-02-20T09:49:24;100177.44;;;9.23;100.00
45894;BME280;31603;51.148;16.932;2023-02-20T09:51:54;100180.56;;;9.20;100.00
45894;BME280;31603;51.148;16.932;2023-02-20T09:54:25;100189.78;;;9.05;100.00
45894;BME280;31603;51.148;16.932;2023-02-20T09:56:56;100181.38;;;8.79;100.00
45894;BME280;31603;51.148;16.932;2023-02-20T09:59:27;100185.34;;;9.11;100.00
45894;BME280;31603;51.148;16.932;2023-02-20T10:01:56;100178.50;;;9.28;100.00
45894;BME280;31603;51.148;16.932;2023-02-20T10:04:30;100171.81;;;9.03;100.00
45894;BME280;31603;51.148;16.932;2023-02-20T10:07:03;100160.84;;;8.75;100.00
45894;BME280;31603;51.148;16.932;2023-02-20T10:09:34;100135.69;;;9.34;100.00
45894;BME280;31603;51.148;16.932;2023-02-20T10:12:08;100120.44;;;9.25;100.00
45894;BME280;31603;51.148;16.932;2023-02-20T10:14:53;100103.66;;;9.54;100.00
45894;BME280;31603;51.148;16.932;2023-02-20T10:17:30;100112.38;;;9.71;100.00
45894;BME280;31603;51.148;16.932;2023-02-20T10:20:02;100103.97;;;9.93;100.00
45894;BME280;31603;51.148;16.932;2023-02-20T10:22:37;100105.63;;;9.87;100.00
45894;BME280;31603;51.148;16.932;2023-02-20T10:25:08;100092.75;;;9.94;100.00
45894;BME280;31603;51.148;16.932;2023-02-20T10:27:45;100076.91;;;9.83;100.00
45894;BME280;31603;51.148;16.932;2023-02-20T10:30:17;100069.31;;;9.85;100.00
45894;BME280;31603;51.148;16.932;2023-02-20T10:32:52;100057.47;;;9.91;100.00
45894;BME280;31603;51.148;16.932;2023-02-20T10:35:24;100044.38;;;9.93;100.00
45894;BME280;31603;51.148;16.932;2023-02-20T10:37:55;100033.38;;;9.67;100.00
45894;BME280;31603;51.148;16.932;2023-02-20T10:40:25;100025.34;;;10.25;100.00
45894;BME280;31603;51.148;16.932;2023-02-20T10:42:59;100023.66;;;10.44;100.00
45894;BME280;31603;51.148;16.932;2023-02-20T10:45:35;100016.59;;;10.81;100.00
45894;BME280;31603;51.148;16.932;2023-02-20T10:48:05;100018.63;;;10.99;100.00
45894;BME280;31603;51.148;16.932;2023-02-20T10:50:37;100008.41;;;10.68;100.00
45894;BME280;31603;51.148;16.932;2023-02-20T10:53:12;99991.75;;;10.43;100.00
45894;BME280;31603;51.148;16.932;2023-02-20T10:55:45;99993.19;;;10.52;100.00
45894;BME280;31603;51.148;16.932;2023-02-20T10:58:18;99993.34;;;10.64;100.00
45894;BME280;31603;51.148;16.932;2023-02-20T11:00:49;100003.50;;;10.70;100.00
45894;BME280;31603;51.148;16.932;2023-02-20T11:03:20;99989.72;;;10.83;100.00
45894;BME280;31603;51.148;16.932;2023-02-20T11:05:52;99979.97;;;10.87;100.00
45894;BME280;31603;51.148;16.932;2023-02-20T11:08:20;99975.72;;;10.91;100.00
45894;BME280;31603;51.148;16.932;2023-02-20T11:10:48;99982.03;;;10.98;100.00
45894;BME280;31603;51.148;16.932;2023-02-20T11:13:18;99996.44;;;11.00;100.00
45894;BME280;31603;51.148;16.932;2023-02-20T11:15:47;99970.75;;;11.06;100.00
45894;BME280;31603;51.148;16.932;2023-02-20T11:18:19;99961.59;;;11.19;100.00
45894;BME280;31603;51.148;16.932;2023-02-20T11:20:51;99971.63;;;11.39;100.00
45894;BME280;31603;51.148;16.932;2023-02-20T11:23:34;99972.63;;;11.76;100.00
45894;BME280;31603;51.148;16.932;2023-02-20T11:26:25;99952.84;;;11.61;100.00
45894;BME280;31603;51.148;16.932;2023-02-20T11:29:01;99949.75;;;11.75;100.00
45894;BME280;31603;51.148;16.932;2023-02-20T11:31:30;99939.94;;;12.11;100.00
45894;BME280;31603;51.148;16.932;2023-02-20T11:33:56;99955.22;;;11.82;100.00
45894;BME280;31603;51.148;16.932;2023-02-20T11:36:26;99945.75;;;12.03;100.00
45894;BME280;31603;51.148;16.932;2023-02-20T11:38:57;99945.69;;;12.10;100.00
45894;BME280;31603;51.148;16.932;2023-02-20T11:41:31;99936.78;;;12.08;100.00
45894;BME280;31603;51.148;16.932;2023-02-20T11:44:06;99933.41;;;11.55;100.00
45894;BME280;31603;51.148;16.932;2023-02-20T11:46:32;99929.13;;;11.60;100.00
45894;BME280;31603;51.148;16.932;2023-02-20T11:49:01;99908.97;;;11.66;100.00
45894;BME280;31603;51.148;16.932;2023-02-20T11:51:36;99900.63;;;11.72;98.80
45894;BME280;31603;51.148;16.932;2023-02-20T11:54:09;99903.38;;;11.47;98.55
45894;BME280;31603;51.148;16.932;2023-02-20T11:56:37;99897.41;;;11.50;99.79
45894;BME280;31603;51.148;16.932;2023-02-20T11:59:25;99878.72;;;11.59;100.00
45894;BME280;31603;51.148;16.932;2023-02-20T12:01:52;99865.75;;;11.91;99.06
45894;BME280;31603;51.148;16.932;2023-02-20T12:04:21;99861.59;;;12.00;97.77
45894;BME280;31603;51.148;16.932;2023-02-20T12:06:49;99860.69;;;11.88;96.55
45894;BME280;31603;51.148;16.932;2023-02-20T12:09:17;99831.91;;;11.84;95.83
45894;BME280;31603;51.148;16.932;2023-02-20T12:11:53;99834.66;;;11.84;96.13
45894;BME280;31603;51.148;16.932;2023-02-20T12:14:21;99837.88;;;11.99;94.97
45894;BME280;31603;51.148;16.932;2023-02-20T12:17:01;99819.59;;;11.80;94.41
45894;BME280;31603;51.148;16.932;2023-02-20T12:19:40;99826.41;;;11.77;92.83
45894;BME280;31603;51.148;16.932;2023-02-20T12:22:17;99806.94;;;11.97;93.22
45894;BME280;31603;51.148;16.932;2023-02-20T12:25:14;99784.34;;;11.89;94.20
45894;BME280;31603;51.148;16.932;2023-02-20T12:27:52;99785.31;;;12.49;88.76
45894;BME280;31603;51.148;16.932;2023-02-20T12:30:31;99774.09;;;12.44;88.36
45894;BME280;31603;51.148;16.932;2023-02-20T12:33:13;99774.41;;;12.96;84.12
45894;BME280;31603;51.148;16.932;2023-02-20T12:35:52;99751.81;;;12.88;85.19
45894;BME280;31603;51.148;16.932;2023-02-20T12:38:30;99747.31;;;13.87;80.75
45894;BME280;31603;51.148;16.932;2023-02-20T12:41:12;99746.84;;;14.19;79.19
45894;BME280;31603;51.148;16.932;2023-02-20T12:43:48;99735.81;;;14.48;78.41
45894;BME280;31603;51.148;16.932;2023-02-20T12:46:21;99730.50;;;13.77;79.51
45894;BME280;31603;51.148;16.932;2023-02-20T12:49:04;99725.81;;;14.47;77.82
45894;BME280;31603;51.148;16.932;2023-02-20T12:51:41;99717.81;;;13.29;78.53
45894;BME280;31603;51.148;16.932;2023-02-20T12:54:26;99712.81;;;12.84;79.90
45894;BME280;31603;51.148;16.932;2023-02-20T12:57:03;99718.53;;;12.29;82.87
45894;BME280;31603;51.148;16.932;2023-02-20T12:59:34;99711.69;;;12.62;83.35